Weather at Manchester-Boston Regional Airport

Public forecast

Using degrees Fahrenheit for public forecast. Weather courtesy of forecast.io.

Current aviation weather report (METAR) for Manchester-Boston Regional Airport

Retrieved 2020/10/29 12:58 UTC (21 minutes ago):

KMHT 291258Z 00000KT 7SM FEW001 FEW150 OVC200 06/04 A2990 RMK AO2 T00560039

Aviation forecast (TAF) for Manchester-Boston Regional Airport

Retrieved 2020/10/29 11:24 UTC (2 hours ago):

TAF KMHT 291123Z 2911/3012 15003KT P6SM SCT002 OVC250 FM291700 36003KT P6SM -RA OVC060 FM291900 01005KT 6SM -RA OVC020 FM292200 36009KT 4SM -RA OVC007 FM300600 01008KT 1 1/2SM -SN OVC006